sensor_id;sensor_type;location;lat;lon;timestamp;temperature;humidity
8002;DHT22;4046;48.774;8.732;2023-06-22T00:00:49;25.70;99.90
8002;DHT22;4046;48.774;8.732;2023-06-22T00:03:15;25.70;99.90
8002;DHT22;4046;48.774;8.732;2023-06-22T00:05:41;25.70;99.90
8002;DHT22;4046;48.774;8.732;2023-06-22T00:08:06;25.70;99.90
8002;DHT22;4046;48.774;8.732;2023-06-22T00:10:32;25.70;99.90
8002;DHT22;4046;48.774;8.732;2023-06-22T00:12:58;25.70;99.90
8002;DHT22;4046;48.774;8.732;2023-06-22T00:15:24;25.90;99.90
8002;DHT22;4046;48.774;8.732;2023-06-22T00:17:50;25.70;99.90
8002;DHT22;4046;48.774;8.732;2023-06-22T00:20:16;25.70;99.90
8002;DHT22;4046;48.774;8.732;2023-06-22T00:22:44;25.70;99.90
8002;DHT22;4046;48.774;8.732;2023-06-22T00:25:10;25.70;99.90
8002;DHT22;4046;48.774;8.732;2023-06-22T00:27:36;25.70;99.90
8002;DHT22;4046;48.774;8.732;2023-06-22T00:30:02;25.70;99.90
8002;DHT22;4046;48.774;8.732;2023-06-22T00:32:28;25.70;99.90
8002;DHT22;4046;48.774;8.732;2023-06-22T00:34:54;25.70;99.90
8002;DHT22;4046;48.774;8.732;2023-06-22T00:37:20;25.70;99.90
8002;DHT22;4046;48.774;8.732;2023-06-22T00:39:48;25.70;99.90
8002;DHT22;4046;48.774;8.732;2023-06-22T00:42:14;25.70;99.90
8002;DHT22;4046;48.774;8.732;2023-06-22T00:44:39;25.70;99.90
8002;DHT22;4046;48.774;8.732;2023-06-22T00:47:06;25.70;99.90
8002;DHT22;4046;48.774;8.732;2023-06-22T00:49:33;25.70;99.90
8002;DHT22;4046;48.774;8.732;2023-06-22T00:51:59;25.70;99.90
8002;DHT22;4046;48.774;8.732;2023-06-22T00:54:25;25.70;99.90
8002;DHT22;4046;48.774;8.732;2023-06-22T00:56:53;25.60;99.90
8002;DHT22;4046;48.774;8.732;2023-06-22T00:59:22;25.70;99.90
8002;DHT22;4046;48.774;8.732;2023-06-22T01:01:49;25.60;99.90
8002;DHT22;4046;48.774;8.732;2023-06-22T01:04:15;25.70;99.90
8002;DHT22;4046;48.774;8.732;2023-06-22T01:07:20;25.70;99.90
8002;DHT22;4046;48.774;8.732;2023-06-22T01:10:14;25.70;99.90
8002;DHT22;4046;48.774;8.732;2023-06-22T01:12:50;25.70;99.90
8002;DHT22;4046;48.774;8.732;2023-06-22T01:15:37;25.60;99.90
8002;DHT22;4046;48.774;8.732;2023-06-22T01:18:05;25.70;99.90
8002;DHT22;4046;48.774;8.732;2023-06-22T01:20:34;25.60;99.90
8002;DHT22;4046;48.774;8.732;2023-06-22T01:26:04;25.60;99.90
8002;DHT22;4046;48.774;8.732;2023-06-22T01:28:45;25.60;99.90
8002;DHT22;4046;48.774;8.732;2023-06-22T01:31:14;25.60;99.90
8002;DHT22;4046;48.774;8.732;2023-06-22T01:33:43;25.60;99.90
8002;DHT22;4046;48.774;8.732;2023-06-22T01:36:10;25.60;99.90
8002;DHT22;4046;48.774;8.732;2023-06-22T01:38:37;25.60;99.90
8002;DHT22;4046;48.774;8.732;2023-06-22T01:41:03;25.60;99.90
8002;DHT22;4046;48.774;8.732;2023-06-22T01:43:30;25.60;99.90
8002;DHT22;4046;48.774;8.732;2023-06-22T01:45:59;25.60;99.90
8002;DHT22;4046;48.774;8.732;2023-06-22T01:48:25;25.60;99.90
8002;DHT22;4046;48.774;8.732;2023-06-22T01:50:52;25.60;99.90
8002;DHT22;4046;48.774;8.732;2023-06-22T01:53:22;25.60;99.90
8002;DHT22;4046;48.774;8.732;2023-06-22T01:55:48;25.60;99.90
8002;DHT22;4046;48.774;8.732;2023-06-22T01:58:15;25.60;99.90
8002;DHT22;4046;48.774;8.732;2023-06-22T02:00:48;25.60;99.90
8002;DHT22;4046;48.774;8.732;2023-06-22T02:03:19;25.60;99.90
8002;DHT22;4046;48.774;8.732;2023-06-22T02:06:03;25.60;99.90
8002;DHT22;4046;48.774;8.732;2023-06-22T02:08:34;25.60;99.90
8002;DHT22;4046;48.774;8.732;2023-06-22T02:11:02;25.50;99.90
8002;DHT22;4046;48.774;8.732;2023-06-22T02:13:29;25.50;99.90
8002;DHT22;4046;48.774;8.732;2023-06-22T02:15:55;25.60;99.90
8002;DHT22;4046;48.774;8.732;2023-06-22T02:18:21;25.60;99.90
8002;DHT22;4046;48.774;8.732;2023-06-22T02:20:47;25.60;99.90
8002;DHT22;4046;48.774;8.732;2023-06-22T02:23:12;25.60;99.90
8002;DHT22;4046;48.774;8.732;2023-06-22T02:25:38;25.60;99.90
8002;DHT22;4046;48.774;8.732;2023-06-22T02:28:05;25.60;99.90
8002;DHT22;4046;48.774;8.732;2023-06-22T02:30:31;25.60;99.90
8002;DHT22;4046;48.774;8.732;2023-06-22T02:32:56;25.50;99.90
8002;DHT22;4046;48.774;8.732;2023-06-22T02:35:28;25.60;99.90
8002;DHT22;4046;48.774;8.732;2023-06-22T02:37:59;25.50;99.90
8002;DHT22;4046;48.774;8.732;2023-06-22T02:40:26;25.80;99.90
8002;DHT22;4046;48.774;8.732;2023-06-22T02:42:52;25.50;99.90
8002;DHT22;4046;48.774;8.732;2023-06-22T02:45:18;25.50;99.90
8002;DHT22;4046;48.774;8.732;2023-06-22T02:47:44;25.60;99.90
8002;DHT22;4046;48.774;8.732;2023-06-22T02:50:10;25.60;99.90
8002;DHT22;4046;48.774;8.732;2023-06-22T02:52:35;25.50;99.90
8002;DHT22;4046;48.774;8.732;2023-06-22T02:55:01;25.50;99.90
8002;DHT22;4046;48.774;8.732;2023-06-22T02:57:27;25.50;99.90
8002;DHT22;4046;48.774;8.732;2023-06-22T02:59:52;25.50;99.90
8002;DHT22;4046;48.774;8.732;2023-06-22T03:02:18;25.50;99.90
8002;DHT22;4046;48.774;8.732;2023-06-22T03:04:47;25.50;99.90
8002;DHT22;4046;48.774;8.732;2023-06-22T03:07:15;25.50;99.90
8002;DHT22;4046;48.774;8.732;2023-06-22T03:09:43;25.50;99.90
8002;DHT22;4046;48.774;8.732;2023-06-22T03:12:08;25.50;99.90
8002;DHT22;4046;48.774;8.732;2023-06-22T03:14:34;25.50;99.90
8002;DHT22;4046;48.774;8.732;2023-06-22T03:17:00;25.50;99.90
8002;DHT22;4046;48.774;8.732;2023-06-22T03:19:29;25.50;99.90
8002;DHT22;4046;48.774;8.732;2023-06-22T03:21:57;25.50;99.90
8002;DHT22;4046;48.774;8.732;2023-06-22T03:24:23;25.50;99.90
8002;DHT22;4046;48.774;8.732;2023-06-22T03:26:48;25.50;99.90
8002;DHT22;4046;48.774;8.732;2023-06-22T03:29:14;25.50;99.90
8002;DHT22;4046;48.774;8.732;2023-06-22T03:31:41;25.50;99.90
8002;DHT22;4046;48.774;8.732;2023-06-22T03:34:06;25.50;99.90
8002;DHT22;4046;48.774;8.732;2023-06-22T03:36:32;25.50;99.90
8002;DHT22;4046;48.774;8.732;2023-06-22T03:38:58;25.50;99.90
8002;DHT22;4046;48.774;8.732;2023-06-22T03:41:24;25.50;99.90
8002;DHT22;4046;48.774;8.732;2023-06-22T03:43:51;25.50;99.90
8002;DHT22;4046;48.774;8.732;2023-06-22T03:46:17;25.50;99.90
8002;DHT22;4046;48.774;8.732;2023-06-22T03:48:42;25.50;99.90
8002;DHT22;4046;48.774;8.732;2023-06-22T03:51:08;25.50;99.90
8002;DHT22;4046;48.774;8.732;2023-06-22T03:53:34;25.50;99.90
8002;DHT22;4046;48.774;8.732;2023-06-22T03:56:00;25.50;99.90
8002;DHT22;4046;48.774;8.732;2023-06-22T03:58:26;25.50;99.90
8002;DHT22;4046;48.774;8.732;2023-06-22T04:00:52;25.50;99.90
8002;DHT22;4046;48.774;8.732;2023-06-22T04:03:19;25.50;99.90
8002;DHT22;4046;48.774;8.732;2023-06-22T04:05:45;25.50;99.90
8002;DHT22;4046;48.774;8.732;2023-06-22T04:08:12;25.40;99.90
8002;DHT22;4046;48.774;8.732;2023-06-22T04:10:39;25.50;99.90
8002;DHT22;4046;48.774;8.732;2023-06-22T04:13:05;25.50;99.90
8002;DHT22;4046;48.774;8.732;2023-06-22T04:15:31;25.50;99.90
8002;DHT22;4046;48.774;8.732;2023-06-22T04:17:57;25.50;99.90
8002;DHT22;4046;48.774;8.732;2023-06-22T04:20:23;25.40;99.90
8002;DHT22;4046;48.774;8.732;2023-06-22T04:22:53;25.50;99.90
8002;DHT22;4046;48.774;8.732;2023-06-22T04:25:19;25.40;99.90
8002;DHT22;4046;48.774;8.732;2023-06-22T04:27:45;25.40;99.90
8002;DHT22;4046;48.774;8.732;2023-06-22T04:30:11;25.50;99.90
8002;DHT22;4046;48.774;8.732;2023-06-22T04:32:40;25.50;99.90
8002;DHT22;4046;48.774;8.732;2023-06-22T04:35:07;25.40;99.90
8002;DHT22;4046;48.774;8.732;2023-06-22T04:37:36;25.50;99.90
8002;DHT22;4046;48.774;8.732;2023-06-22T04:40:01;25.50;99.90
8002;DHT22;4046;48.774;8.732;2023-06-22T04:42:30;25.50;99.90
8002;DHT22;4046;48.774;8.732;2023-06-22T04:45:00;25.50;99.90
8002;DHT22;4046;48.774;8.732;2023-06-22T04:47:28;25.40;99.90
8002;DHT22;4046;48.774;8.732;2023-06-22T04:49:54;25.40;99.90
8002;DHT22;4046;48.774;8.732;2023-06-22T04:52:20;25.50;99.90
8002;DHT22;4046;48.774;8.732;2023-06-22T04:54:47;25.40;99.90
8002;DHT22;4046;48.774;8.732;2023-06-22T04:57:21;25.40;99.90
8002;DHT22;4046;48.774;8.732;2023-06-22T04:59:58;25.50;99.90
8002;DHT22;4046;48.774;8.732;2023-06-22T05:02:42;25.40;99.90
8002;DHT22;4046;48.774;8.732;2023-06-22T05:05:08;25.40;99.90
8002;DHT22;4046;48.774;8.732;2023-06-22T05:07:34;25.40;99.90
8002;DHT22;4046;48.774;8.732;2023-06-22T05:10:02;25.40;99.90
8002;DHT22;4046;48.774;8.732;2023-06-22T05:12:29;25.40;99.90
8002;DHT22;4046;48.774;8.732;2023-06-22T05:14:55;25.40;99.90
8002;DHT22;4046;48.774;8.732;2023-06-22T05:17:21;25.60;99.90
8002;DHT22;4046;48.774;8.732;2023-06-22T05:19:47;25.40;99.90
8002;DHT22;4046;48.774;8.732;2023-06-22T05:22:17;25.40;99.90
8002;DHT22;4046;48.774;8.732;2023-06-22T05:24:43;25.40;99.90
8002;DHT22;4046;48.774;8.732;2023-06-22T05:27:12;25.40;99.90
8002;DHT22;4046;48.774;8.732;2023-06-22T05:29:39;25.40;99.90
8002;DHT22;4046;48.774;8.732;2023-06-22T05:32:05;25.40;99.90
8002;DHT22;4046;48.774;8.732;2023-06-22T05:34:31;25.50;99.90
8002;DHT22;4046;48.774;8.732;2023-06-22T05:36:57;25.40;99.90
8002;DHT22;4046;48.774;8.732;2023-06-22T05:39:26;25.50;99.90
8002;DHT22;4046;48.774;8.732;2023-06-22T05:41:51;25.50;99.90
8002;DHT22;4046;48.774;8.732;2023-06-22T05:44:18;25.50;99.90
8002;DHT22;4046;48.774;8.732;2023-06-22T05:46:44;25.50;99.90
8002;DHT22;4046;48.774;8.732;2023-06-22T05:49:15;25.50;99.90
8002;DHT22;4046;48.774;8.732;2023-06-22T05:51:41;25.60;99.90
8002;DHT22;4046;48.774;8.732;2023-06-22T05:54:07;25.50;99.90
8002;DHT22;4046;48.774;8.732;2023-06-22T05:56:34;25.50;99.90
8002;DHT22;4046;48.774;8.732;2023-06-22T05:59:00;25.50;99.90
8002;DHT22;4046;48.774;8.732;2023-06-22T06:01:26;25.50;99.90
8002;DHT22;4046;48.774;8.732;2023-06-22T06:03:52;25.50;99.90
8002;DHT22;4046;48.774;8.732;2023-06-22T06:06:18;25.50;99.90
8002;DHT22;4046;48.774;8.732;2023-06-22T06:08:46;25.50;99.90
8002;DHT22;4046;48.774;8.732;2023-06-22T06:11:12;25.50;99.90
8002;DHT22;4046;48.774;8.732;2023-06-22T06:13:38;25.50;99.90
8002;DHT22;4046;48.774;8.732;2023-06-22T06:16:04;25.50;99.90
8002;DHT22;4046;48.774;8.732;2023-06-22T06:18:29;25.50;99.90
8002;DHT22;4046;48.774;8.732;2023-06-22T06:20:56;25.70;99.90
8002;DHT22;4046;48.774;8.732;2023-06-22T06:23:22;25.50;99.90
8002;DHT22;4046;48.774;8.732;2023-06-22T06:25:47;25.60;99.90
8002;DHT22;4046;48.774;8.732;2023-06-22T06:28:13;25.60;99.90
8002;DHT22;4046;48.774;8.732;2023-06-22T06:30:39;25.60;99.90
8002;DHT22;4046;48.774;8.732;2023-06-22T06:33:06;25.60;99.90
8002;DHT22;4046;48.774;8.732;2023-06-22T06:35:34;25.60;99.90
8002;DHT22;4046;48.774;8.732;2023-06-22T06:38:00;25.60;99.90
8002;DHT22;4046;48.774;8.732;2023-06-22T06:40:25;25.60;99.90
8002;DHT22;4046;48.774;8.732;2023-06-22T06:42:51;25.60;99.90
8002;DHT22;4046;48.774;8.732;2023-06-22T06:45:19;25.60;99.90
8002;DHT22;4046;48.774;8.732;2023-06-22T06:47:45;25.60;99.90
8002;DHT22;4046;48.774;8.732;2023-06-22T06:50:12;25.60;99.90
8002;DHT22;4046;48.774;8.732;2023-06-22T06:52:38;25.60;99.90
8002;DHT22;4046;48.774;8.732;2023-06-22T06:55:04;25.60;99.90
8002;DHT22;4046;48.774;8.732;2023-06-22T06:57:33;25.60;99.90
8002;DHT22;4046;48.774;8.732;2023-06-22T06:59:59;25.60;99.90
8002;DHT22;4046;48.774;8.732;2023-06-22T07:02:26;25.60;99.90
8002;DHT22;4046;48.774;8.732;2023-06-22T07:04:53;25.60;99.90
8002;DHT22;4046;48.774;8.732;2023-06-22T07:07:21;25.60;99.90
8002;DHT22;4046;48.774;8.732;2023-06-22T07:09:47;25.60;99.90
8002;DHT22;4046;48.774;8.732;2023-06-22T07:12:13;25.60;99.90
8002;DHT22;4046;48.774;8.732;2023-06-22T07:14:39;25.60;99.90
8002;DHT22;4046;48.774;8.732;2023-06-22T07:17:05;25.60;99.90
8002;DHT22;4046;48.774;8.732;2023-06-22T07:19:33;25.60;99.90
8002;DHT22;4046;48.774;8.732;2023-06-22T07:21:58;25.60;99.90
8002;DHT22;4046;48.774;8.732;2023-06-22T07:24:24;25.60;99.90
8002;DHT22;4046;48.774;8.732;2023-06-22T07:26:51;25.60;99.90
8002;DHT22;4046;48.774;8.732;2023-06-22T07:29:18;25.60;99.90
8002;DHT22;4046;48.774;8.732;2023-06-22T07:31:44;25.60;99.90
8002;DHT22;4046;48.774;8.732;2023-06-22T07:34:10;25.60;99.90
8002;DHT22;4046;48.774;8.732;2023-06-22T07:36:36;25.60;99.90
8002;DHT22;4046;48.774;8.732;2023-06-22T07:39:03;25.60;99.90
8002;DHT22;4046;48.774;8.732;2023-06-22T07:41:30;25.60;99.90
8002;DHT22;4046;48.774;8.732;2023-06-22T07:43:56;25.80;99.90
8002;DHT22;4046;48.774;8.732;2023-06-22T07:46:22;25.60;99.90
8002;DHT22;4046;48.774;8.732;2023-06-22T07:48:48;25.60;99.90
8002;DHT22;4046;48.774;8.732;2023-06-22T07:51:14;25.60;99.90
8002;DHT22;4046;48.774;8.732;2023-06-22T07:53:44;25.70;99.90
8002;DHT22;4046;48.774;8.732;2023-06-22T07:56:10;25.60;99.90
8002;DHT22;4046;48.774;8.732;2023-06-22T07:58:36;26.00;99.90
8002;DHT22;4046;48.774;8.732;2023-06-22T08:01:02;25.70;99.90
8002;DHT22;4046;48.774;8.732;2023-06-22T08:03:29;25.70;99.90
8002;DHT22;4046;48.774;8.732;2023-06-22T08:05:55;25.70;99.90
8002;DHT22;4046;48.774;8.732;2023-06-22T08:08:21;25.80;99.90
8002;DHT22;4046;48.774;8.732;2023-06-22T08:10:47;25.70;99.90
8002;DHT22;4046;48.774;8.732;2023-06-22T08:13:12;25.70;99.90
8002;DHT22;4046;48.774;8.732;2023-06-22T08:15:38;25.70;99.90
8002;DHT22;4046;48.774;8.732;2023-06-22T08:18:05;25.70;99.90
8002;DHT22;4046;48.774;8.732;2023-06-22T08:20:31;25.70;99.90
8002;DHT22;4046;48.774;8.732;2023-06-22T08:22:57;25.70;99.90
8002;DHT22;4046;48.774;8.732;2023-06-22T08:25:24;25.70;99.90
8002;DHT22;4046;48.774;8.732;2023-06-22T08:27:49;25.70;99.90
8002;DHT22;4046;48.774;8.732;2023-06-22T08:30:16;25.60;99.90
8002;DHT22;4046;48.774;8.732;2023-06-22T08:32:43;25.70;99.90
8002;DHT22;4046;48.774;8.732;2023-06-22T08:35:08;25.70;99.90
8002;DHT22;4046;48.774;8.732;2023-06-22T08:37:35;25.70;99.90
8002;DHT22;4046;48.774;8.732;2023-06-22T08:40:04;25.70;99.90
8002;DHT22;4046;48.774;8.732;2023-06-22T08:42:36;25.60;99.90
8002;DHT22;4046;48.774;8.732;2023-06-22T08:45:06;25.90;99.90
8002;DHT22;4046;48.774;8.732;2023-06-22T08:47:32;25.60;99.90
8002;DHT22;4046;48.774;8.732;2023-06-22T08:49:57;25.90;99.90
8002;DHT22;4046;48.774;8.732;2023-06-22T08:52:24;25.70;99.90
8002;DHT22;4046;48.774;8.732;2023-06-22T08:54:49;25.70;99.90
8002;DHT22;4046;48.774;8.732;2023-06-22T08:57:16;25.80;99.90
8002;DHT22;4046;48.774;8.732;2023-06-22T08:59:42;25.70;99.90
8002;DHT22;4046;48.774;8.732;2023-06-22T09:02:08;26.00;99.90
8002;DHT22;4046;48.774;8.732;2023-06-22T09:04:34;25.80;99.90
8002;DHT22;4046;48.774;8.732;2023-06-22T09:07:03;25.70;99.90
8002;DHT22;4046;48.774;8.732;2023-06-22T09:09:29;25.70;99.90
8002;DHT22;4046;48.774;8.732;2023-06-22T09:11:55;25.70;99.90
8002;DHT22;4046;48.774;8.732;2023-06-22T09:14:21;25.70;99.90
8002;DHT22;4046;48.774;8.732;2023-06-22T09:16:47;25.70;99.90
8002;DHT22;4046;48.774;8.732;2023-06-22T09:19:12;25.70;99.90
8002;DHT22;4046;48.774;8.732;2023-06-22T09:21:38;25.70;99.90
8002;DHT22;4046;48.774;8.732;2023-06-22T09:24:04;25.70;99.90
8002;DHT22;4046;48.774;8.732;2023-06-22T09:26:30;25.80;99.90
8002;DHT22;4046;48.774;8.732;2023-06-22T09:28:56;25.80;99.90
8002;DHT22;4046;48.774;8.732;2023-06-22T09:31:21;25.90;99.90
8002;DHT22;4046;48.774;8.732;2023-06-22T09:33:52;25.90;99.90
8002;DHT22;4046;48.774;8.732;2023-06-22T09:36:18;26.00;99.90
8002;DHT22;4046;48.774;8.732;2023-06-22T09:38:44;26.00;99.90
8002;DHT22;4046;48.774;8.732;2023-06-22T09:41:09;26.00;99.90
8002;DHT22;4046;48.774;8.732;2023-06-22T09:43:35;26.00;99.90
8002;DHT22;4046;48.774;8.732;2023-06-22T09:46:02;26.10;99.90
8002;DHT22;4046;48.774;8.732;2023-06-22T09:48:29;26.10;99.90
8002;DHT22;4046;48.774;8.732;2023-06-22T09:50:55;26.10;99.90
8002;DHT22;4046;48.774;8.732;2023-06-22T09:53:21;26.10;99.90
8002;DHT22;4046;48.774;8.732;2023-06-22T09:55:47;26.10;99.90
8002;DHT22;4046;48.774;8.732;2023-06-22T09:58:13;26.10;99.90
8002;DHT22;4046;48.774;8.732;2023-06-22T10:00:39;26.10;99.90
8002;DHT22;4046;48.774;8.732;2023-06-22T10:03:07;26.10;99.90
8002;DHT22;4046;48.774;8.732;2023-06-22T10:05:33;26.10;99.90
8002;DHT22;4046;48.774;8.732;2023-06-22T10:07:59;26.10;99.90
8002;DHT22;4046;48.774;8.732;2023-06-22T10:10:25;26.10;99.90
8002;DHT22;4046;48.774;8.732;2023-06-22T10:13:01;26.10;99.90
8002;DHT22;4046;48.774;8.732;2023-06-22T10:15:28;26.10;99.90
8002;DHT22;4046;48.774;8.732;2023-06-22T10:17:54;26.10;99.90
8002;DHT22;4046;48.774;8.732;2023-06-22T10:20:19;26.10;99.90
8002;DHT22;4046;48.774;8.732;2023-06-22T10:22:48;26.10;99.90
8002;DHT22;4046;48.774;8.732;2023-06-22T10:25:14;26.10;99.90
8002;DHT22;4046;48.774;8.732;2023-06-22T10:27:40;26.10;99.90
8002;DHT22;4046;48.774;8.732;2023-06-22T10:30:07;26.10;99.90
8002;DHT22;4046;48.774;8.732;2023-06-22T10:32:33;26.10;99.90
8002;DHT22;4046;48.774;8.732;2023-06-22T10:34:59;26.10;99.90
8002;DHT22;4046;48.774;8.732;2023-06-22T10:37:25;26.10;99.90
8002;DHT22;4046;48.774;8.732;2023-06-22T10:39:50;26.00;99.90
8002;DHT22;4046;48.774;8.732;2023-06-22T10:42:17;26.10;99.90
8002;DHT22;4046;48.774;8.732;2023-06-22T10:44:42;26.40;99.90
8002;DHT22;4046;48.774;8.732;2023-06-22T10:47:10;26.10;99.90
8002;DHT22;4046;48.774;8.732;2023-06-22T10:49:38;26.10;99.90
8002;DHT22;4046;48.774;8.732;2023-06-22T10:52:05;26.10;99.90
8002;DHT22;4046;48.774;8.732;2023-06-22T10:54:32;26.10;99.90
8002;DHT22;4046;48.774;8.732;2023-06-22T10:57:00;26.10;99.90
8002;DHT22;4046;48.774;8.732;2023-06-22T10:59:25;26.10;99.90
8002;DHT22;4046;48.774;8.732;2023-06-22T11:01:53;26.10;99.90
8002;DHT22;4046;48.774;8.732;2023-06-22T11:04:19;26.10;99.90
8002;DHT22;4046;48.774;8.732;2023-06-22T11:06:44;26.10;99.90
8002;DHT22;4046;48.774;8.732;2023-06-22T11:09:10;26.20;99.90
8002;DHT22;4046;48.774;8.732;2023-06-22T11:11:36;26.10;99.90
8002;DHT22;4046;48.774;8.732;2023-06-22T11:14:02;26.10;99.90
8002;DHT22;4046;48.774;8.732;2023-06-22T11:16:28;26.10;99.90
8002;DHT22;4046;48.774;8.732;2023-06-22T11:18:54;26.10;99.90
8002;DHT22;4046;48.774;8.732;2023-06-22T11:21:20;26.10;99.90
8002;DHT22;4046;48.774;8.732;2023-06-22T11:23:45;26.10;99.90
8002;DHT22;4046;48.774;8.732;2023-06-22T11:26:11;26.10;99.90
8002;DHT22;4046;48.774;8.732;2023-06-22T11:28:37;26.10;99.90
8002;DHT22;4046;48.774;8.732;2023-06-22T11:31:03;26.40;99.90
8002;DHT22;4046;48.774;8.732;2023-06-22T11:33:29;26.10;99.90
8002;DHT22;4046;48.774;8.732;2023-06-22T11:35:54;26.10;99.90
8002;DHT22;4046;48.774;8.732;2023-06-22T11:38:22;26.10;99.90
8002;DHT22;4046;48.774;8.732;2023-06-22T11:40:47;26.10;99.90
8002;DHT22;4046;48.774;8.732;2023-06-22T11:43:13;26.30;99.90
8002;DHT22;4046;48.774;8.732;2023-06-22T11:45:40;26.00;99.90
8002;DHT22;4046;48.774;8.732;2023-06-22T11:48:06;26.00;99.90
8002;DHT22;4046;48.774;8.732;2023-06-22T11:50:32;26.00;99.90
8002;DHT22;4046;48.774;8.732;2023-06-22T11:53:02;26.00;99.90
8002;DHT22;4046;48.774;8.732;2023-06-22T11:55:29;26.00;99.90
8002;DHT22;4046;48.774;8.732;2023-06-22T11:57:56;26.00;99.90
8002;DHT22;4046;48.774;8.732;2023-06-22T12:00:24;26.00;99.90
8002;DHT22;4046;48.774;8.732;2023-06-22T12:02:53;26.00;99.90
8002;DHT22;4046;48.774;8.732;2023-06-22T12:05:22;26.00;99.90
8002;DHT22;4046;48.774;8.732;2023-06-22T12:07:48;26.00;99.90
8002;DHT22;4046;48.774;8.732;2023-06-22T12:10:15;26.00;99.90
8002;DHT22;4046;48.774;8.732;2023-06-22T12:12:41;26.00;99.90
8002;DHT22;4046;48.774;8.732;2023-06-22T12:15:09;26.00;99.90
8002;DHT22;4046;48.774;8.732;2023-06-22T12:17:35;26.00;99.90
8002;DHT22;4046;48.774;8.732;2023-06-22T12:20:01;26.00;99.90
8002;DHT22;4046;48.774;8.732;2023-06-22T12:22:31;26.10;99.90
8002;DHT22;4046;48.774;8.732;2023-06-22T12:24:57;26.00;99.90
8002;DHT22;4046;48.774;8.732;2023-06-22T12:27:23;26.00;99.90
8002;DHT22;4046;48.774;8.732;2023-06-22T12:29:49;26.00;99.90
8002;DHT22;4046;48.774;8.732;2023-06-22T12:32:14;26.10;99.90
8002;DHT22;4046;48.774;8.732;2023-06-22T12:34:43;26.10;99.90
8002;DHT22;4046;48.774;8.732;2023-06-22T12:37:08;26.10;99.90
8002;DHT22;4046;48.774;8.732;2023-06-22T12:39:35;26.10;99.90
8002;DHT22;4046;48.774;8.732;2023-06-22T12:42:01;26.00;99.90
8002;DHT22;4046;48.774;8.732;2023-06-22T12:44:26;26.10;99.90
8002;DHT22;4046;48.774;8.732;2023-06-22T12:46:52;26.10;99.90
8002;DHT22;4046;48.774;8.732;2023-06-22T12:49:18;26.10;99.90
8002;DHT22;4046;48.774;8.732;2023-06-22T12:51:44;26.10;99.90
8002;DHT22;4046;48.774;8.732;2023-06-22T12:54:11;26.10;99.90
8002;DHT22;4046;48.774;8.732;2023-06-22T12:56:37;26.10;99.90
8002;DHT22;4046;48.774;8.732;2023-06-22T12:59:06;26.10;99.90
8002;DHT22;4046;48.774;8.732;2023-06-22T13:01:32;26.10;99.90
8002;DHT22;4046;48.774;8.732;2023-06-22T13:03:58;26.10;99.90
8002;DHT22;4046;48.774;8.732;2023-06-22T13:06:25;26.10;99.90
8002;DHT22;4046;48.774;8.732;2023-06-22T13:08:51;26.10;99.90
8002;DHT22;4046;48.774;8.732;2023-06-22T13:11:17;26.10;99.90
8002;DHT22;4046;48.774;8.732;2023-06-22T13:13:44;26.10;99.90
8002;DHT22;4046;48.774;8.732;2023-06-22T13:16:10;26.10;99.90
8002;DHT22;4046;48.774;8.732;2023-06-22T13:18:36;26.10;99.90
8002;DHT22;4046;48.774;8.732;2023-06-22T13:21:03;26.10;99.90
8002;DHT22;4046;48.774;8.732;2023-06-22T13:23:29;26.10;99.90
8002;DHT22;4046;48.774;8.732;2023-06-22T13:25:54;26.30;99.90
8002;DHT22;4046;48.774;8.732;2023-06-22T13:28:20;26.10;99.90
8002;DHT22;4046;48.774;8.732;2023-06-22T13:30:47;26.20;99.90
8002;DHT22;4046;48.774;8.732;2023-06-22T13:33:13;26.20;99.90
8002;DHT22;4046;48.774;8.732;2023-06-22T13:35:39;26.20;99.90
8002;DHT22;4046;48.774;8.732;2023-06-22T13:38:08;26.20;99.90
8002;DHT22;4046;48.774;8.732;2023-06-22T13:40:35;26.20;99.90
8002;DHT22;4046;48.774;8.732;2023-06-22T13:43:01;26.20;99.90
8002;DHT22;4046;48.774;8.732;2023-06-22T13:45:26;26.20;99.90
8002;DHT22;4046;48.774;8.732;2023-06-22T13:47:53;26.50;99.90
8002;DHT22;4046;48.774;8.732;2023-06-22T13:50:18;26.20;99.90
8002;DHT22;4046;48.774;8.732;2023-06-22T13:52:44;26.30;99.90
8002;DHT22;4046;48.774;8.732;2023-06-22T13:55:10;26.20;99.90
8002;DHT22;4046;48.774;8.732;2023-06-22T13:57:36;26.20;99.90
8002;DHT22;4046;48.774;8.732;2023-06-22T14:00:04;26.20;99.90
8002;DHT22;4046;48.774;8.732;2023-06-22T14:02:34;26.20;99.90
8002;DHT22;4046;48.774;8.732;2023-06-22T14:05:00;26.20;99.90
8002;DHT22;4046;48.774;8.732;2023-06-22T14:07:26;26.20;99.90
8002;DHT22;4046;48.774;8.732;2023-06-22T14:09:51;26.20;99.90
8002;DHT22;4046;48.774;8.732;2023-06-22T14:12:17;26.20;99.90
8002;DHT22;4046;48.774;8.732;2023-06-22T14:14:43;26.20;99.90
8002;DHT22;4046;48.774;8.732;2023-06-22T14:17:12;26.20;99.90
8002;DHT22;4046;48.774;8.732;2023-06-22T14:19:38;26.20;99.90
8002;DHT22;4046;48.774;8.732;2023-06-22T14:22:04;26.20;99.90
8002;DHT22;4046;48.774;8.732;2023-06-22T14:24:30;26.20;99.90
8002;DHT22;4046;48.774;8.732;2023-06-22T14:26:56;26.30;99.90
8002;DHT22;4046;48.774;8.732;2023-06-22T14:29:22;26.20;99.90
8002;DHT22;4046;48.774;8.732;2023-06-22T14:31:48;26.20;99.90
8002;DHT22;4046;48.774;8.732;2023-06-22T14:34:15;26.20;99.90
8002;DHT22;4046;48.774;8.732;2023-06-22T14:36:42;26.20;99.90
8002;DHT22;4046;48.774;8.732;2023-06-22T14:39:08;26.20;99.90
8002;DHT22;4046;48.774;8.732;2023-06-22T14:41:34;26.20;99.90
8002;DHT22;4046;48.774;8.732;2023-06-22T14:44:00;26.20;99.90
8002;DHT22;4046;48.774;8.732;2023-06-22T14:46:27;26.20;99.90
8002;DHT22;4046;48.774;8.732;2023-06-22T14:48:53;26.20;99.90
8002;DHT22;4046;48.774;8.732;2023-06-22T14:51:19;26.20;99.90
8002;DHT22;4046;48.774;8.732;2023-06-22T14:53:45;26.20;99.90
8002;DHT22;4046;48.774;8.732;2023-06-22T14:56:11;26.20;99.90
8002;DHT22;4046;48.774;8.732;2023-06-22T14:58:40;26.20;99.90
8002;DHT22;4046;48.774;8.732;2023-06-22T15:01:06;26.20;99.90
8002;DHT22;4046;48.774;8.732;2023-06-22T15:03:34;26.30;99.90
8002;DHT22;4046;48.774;8.732;2023-06-22T15:06:01;26.20;99.90
8002;DHT22;4046;48.774;8.732;2023-06-22T15:08:28;26.50;99.90
8002;DHT22;4046;48.774;8.732;2023-06-22T15:10:54;26.20;99.90
8002;DHT22;4046;48.774;8.732;2023-06-22T15:13:20;26.20;99.90
8002;DHT22;4046;48.774;8.732;2023-06-22T15:15:47;26.30;99.90
8002;DHT22;4046;48.774;8.732;2023-06-22T15:18:14;26.40;99.90
8002;DHT22;4046;48.774;8.732;2023-06-22T15:20:40;26.40;99.90
8002;DHT22;4046;48.774;8.732;2023-06-22T15:23:07;26.40;99.90
8002;DHT22;4046;48.774;8.732;2023-06-22T15:25:34;26.40;99.90
8002;DHT22;4046;48.774;8.732;2023-06-22T15:28:00;26.40;99.90
8002;DHT22;4046;48.774;8.732;2023-06-22T15:30:26;26.40;99.90
8002;DHT22;4046;48.774;8.732;2023-06-22T15:32:51;26.50;99.90
8002;DHT22;4046;48.774;8.732;2023-06-22T15:35:17;26.70;99.90
8002;DHT22;4046;48.774;8.732;2023-06-22T15:37:44;26.60;99.90
8002;DHT22;4046;48.774;8.732;2023-06-22T15:40:11;26.60;99.90
8002;DHT22;4046;48.774;8.732;2023-06-22T15:42:37;26.60;99.90
8002;DHT22;4046;48.774;8.732;2023-06-22T15:45:03;26.70;99.90
8002;DHT22;4046;48.774;8.732;2023-06-22T15:47:29;26.70;99.90
8002;DHT22;4046;48.774;8.732;2023-06-22T15:49:55;26.70;99.90
8002;DHT22;4046;48.774;8.732;2023-06-22T15:52:22;26.70;99.90
8002;DHT22;4046;48.774;8.732;2023-06-22T15:54:48;26.70;99.90
8002;DHT22;4046;48.774;8.732;2023-06-22T15:57:15;26.60;99.90
8002;DHT22;4046;48.774;8.732;2023-06-22T15:59:41;26.60;99.90
8002;DHT22;4046;48.774;8.732;2023-06-22T16:02:07;26.60;99.90